This is the latest recevied weather packets stored in our database for station/object TG9SRP-22. If no packets are shown the sender has not sent any weather packets the latest 1 day(s).
| Time | Temp. | Humidity | Pressure | Rain* | Wind** | Luminosity | Snow |
|---|---|---|---|---|---|---|---|
| 1777999670 | 23.33° C | 61% | 1014 hPa | 0 mm | 1.34 m/s, 0° | - | - |
| 1777999069 | 22.78° C | 67% | 1014 hPa | 0 mm | 1.34 m/s, 0° | - | - |
| 1777998468 | 22.22° C | 61% | 1015 hPa | 0 mm | 1.34 m/s, 0° | - | - |
| 1777997868 | 23.33° C | 61% | 1015 hPa | 0 mm | 1.34 m/s, 0° | - | - |
| 1777997267 | 23.33° C | 61% | 1015 hPa | 0 mm | 1.34 m/s, 0° | - | - |
| 1777996667 | 20° C | 73% | 1015 hPa | 0 mm | 2.68 m/s, 50° | - | - |
| 1777996066 | 20° C | 73% | 1015 hPa | 0 mm | 2.68 m/s, 50° | - | - |
| 1777995466 | 20° C | 73% | 1015 hPa | 0 mm | 2.68 m/s, 50° | - | - |
| 1777994865 | 20° C | 73% | 1015 hPa | 0 mm | 2.68 m/s, 50° | - | - |
| 1777994264 | 20° C | 73% | 1015 hPa | 0 mm | 2.68 m/s, 50° | - | - |
| 1777993664 | 18.89° C | 78% | 1015 hPa | 0 mm | 2.68 m/s, 50° | - | - |
| 1777993063 | 18.89° C | 78% | 1015 hPa | 0 mm | 2.68 m/s, 50° | - | - |
| 1777992463 | 18.89° C | 78% | 1015 hPa | 0 mm | 2.68 m/s, 50° | - | - |
| 1777991862 | 18.89° C | 78% | 1015 hPa | 0 mm | 2.68 m/s, 50° | - | - |
| 1777991261 | 17.78° C | 79% | 1016 hPa | 0 mm | 2.68 m/s, 50° | - | - |
| 1777990661 | 18.33° C | 78% | 1016 hPa | 0 mm | 2.68 m/s, 50° | - | - |
| 1777990060 | 18.89° C | 78% | 1016 hPa | 0 mm | 2.68 m/s, 50° | - | - |
| 1777989460 | 17.22° C | 77% | 1016 hPa | 0 mm | 4.92 m/s, 10° | - | - |
| 1777988859 | 18.33° C | 77% | 1016 hPa | 0 mm | 4.92 m/s, 10° | - | - |
| 1777988258 | 16.11° C | 77% | 1016 hPa | 0 mm | 4.92 m/s, 10° | - | - |
| 1777987658 | 17.22° C | 77% | 1016 hPa | 0 mm | 4.92 m/s, 10° | - | - |
| 1777987057 | 18.33° C | 77% | 1016 hPa | 0 mm | 4.92 m/s, 10° | - | - |
| 1777986457 | 15.56° C | 89% | 1016 hPa | 0 mm | 2.24 m/s, 340° | - | - |
| 1777985856 | 16.67° C | 88% | 1016 hPa | 0 mm | 2.68 m/s, 340° | - | - |
| 1777985255 | 17.22° C | 88% | 1016 hPa | 0 mm | 2.68 m/s, 340° | - | - |
* Rain latest hour (hover to see other rain measurements)
** Current wind speed in m/s (hover to see current wind gust speed)